sensor_id;sensor_type;location;lat;lon;timestamp;temperature;humidity
43808;DHT22;29438;50.664;10.098;2023-03-22T00:01:09;5.30;91.60
43808;DHT22;29438;50.664;10.098;2023-03-22T00:03:35;5.40;92.00
43808;DHT22;29438;50.664;10.098;2023-03-22T00:06:00;5.50;92.00
43808;DHT22;29438;50.664;10.098;2023-03-22T00:08:26;5.60;92.30
43808;DHT22;29438;50.664;10.098;2023-03-22T00:10:51;5.50;92.20
43808;DHT22;29438;50.664;10.098;2023-03-22T00:13:17;5.70;92.50
43808;DHT22;29438;50.664;10.098;2023-03-22T00:15:42;5.60;92.40
43808;DHT22;29438;50.664;10.098;2023-03-22T00:18:10;5.50;92.40
43808;DHT22;29438;50.664;10.098;2023-03-22T00:20:37;5.50;92.60
43808;DHT22;29438;50.664;10.098;2023-03-22T00:23:04;5.50;92.70
43808;DHT22;29438;50.664;10.098;2023-03-22T00:25:30;5.70;92.70
43808;DHT22;29438;50.664;10.098;2023-03-22T00:27:56;5.90;92.70
43808;DHT22;29438;50.664;10.098;2023-03-22T00:30:21;6.00;92.50
43808;DHT22;29438;50.664;10.098;2023-03-22T00:32:47;6.00;92.40
43808;DHT22;29438;50.664;10.098;2023-03-22T00:35:12;6.10;92.40
43808;DHT22;29438;50.664;10.098;2023-03-22T00:37:38;6.20;92.40
43808;DHT22;29438;50.664;10.098;2023-03-22T00:40:05;6.00;92.20
43808;DHT22;29438;50.664;10.098;2023-03-22T00:42:34;6.00;92.10
43808;DHT22;29438;50.664;10.098;2023-03-22T00:45:00;5.90;92.10
43808;DHT22;29438;50.664;10.098;2023-03-22T00:47:25;5.80;92.20
43808;DHT22;29438;50.664;10.098;2023-03-22T00:49:51;5.80;92.20
43808;DHT22;29438;50.664;10.098;2023-03-22T00:52:16;5.70;92.20
43808;DHT22;29438;50.664;10.098;2023-03-22T00:54:41;5.70;92.40
43808;DHT22;29438;50.664;10.098;2023-03-22T00:57:07;5.80;92.50
43808;DHT22;29438;50.664;10.098;2023-03-22T00:59:33;5.80;92.40
43808;DHT22;29438;50.664;10.098;2023-03-22T01:02:03;5.80;92.30
43808;DHT22;29438;50.664;10.098;2023-03-22T01:04:30;5.70;92.20
43808;DHT22;29438;50.664;10.098;2023-03-22T01:06:56;5.60;92.10
43808;DHT22;29438;50.664;10.098;2023-03-22T01:09:27;5.60;92.10
43808;DHT22;29438;50.664;10.098;2023-03-22T01:11:56;5.50;92.20
43808;DHT22;29438;50.664;10.098;2023-03-22T01:14:23;5.40;92.20
43808;DHT22;29438;50.664;10.098;2023-03-22T01:16:48;5.40;92.30
43808;DHT22;29438;50.664;10.098;2023-03-22T01:19:14;5.40;92.60
43808;DHT22;29438;50.664;10.098;2023-03-22T01:21:40;5.40;92.70
43808;DHT22;29438;50.664;10.098;2023-03-22T01:24:06;5.40;92.80
43808;DHT22;29438;50.664;10.098;2023-03-22T01:26:32;5.40;92.90
43808;DHT22;29438;50.664;10.098;2023-03-22T01:28:57;5.30;93.00
43808;DHT22;29438;50.664;10.098;2023-03-22T01:31:23;5.20;93.00
43808;DHT22;29438;50.664;10.098;2023-03-22T01:33:48;5.10;93.10
43808;DHT22;29438;50.664;10.098;2023-03-22T01:36:14;5.10;93.20
43808;DHT22;29438;50.664;10.098;2023-03-22T01:38:40;5.00;93.30
43808;DHT22;29438;50.664;10.098;2023-03-22T01:41:05;4.90;93.30
43808;DHT22;29438;50.664;10.098;2023-03-22T01:43:31;4.80;93.30
43808;DHT22;29438;50.664;10.098;2023-03-22T01:45:57;4.70;93.40
43808;DHT22;29438;50.664;10.098;2023-03-22T01:48:26;4.60;93.50
43808;DHT22;29438;50.664;10.098;2023-03-22T01:51:08;4.50;93.50
43808;DHT22;29438;50.664;10.098;2023-03-22T01:53:46;4.50;93.60
43808;DHT22;29438;50.664;10.098;2023-03-22T01:56:12;4.40;93.80
43808;DHT22;29438;50.664;10.098;2023-03-22T01:58:38;4.30;93.70
43808;DHT22;29438;50.664;10.098;2023-03-22T02:01:06;4.30;93.80
43808;DHT22;29438;50.664;10.098;2023-03-22T02:03:43;4.20;93.80
43808;DHT22;29438;50.664;10.098;2023-03-22T02:06:09;4.20;93.90
43808;DHT22;29438;50.664;10.098;2023-03-22T02:08:35;4.30;94.00
43808;DHT22;29438;50.664;10.098;2023-03-22T02:11:01;4.30;94.10
43808;DHT22;29438;50.664;10.098;2023-03-22T02:13:45;4.20;94.10
43808;DHT22;29438;50.664;10.098;2023-03-22T02:16:30;4.10;94.20
43808;DHT22;29438;50.664;10.098;2023-03-22T02:25:05;3.70;94.20
43808;DHT22;29438;50.664;10.098;2023-03-22T02:27:58;3.70;94.20
43808;DHT22;29438;50.664;10.098;2023-03-22T02:47:28;4.00;94.70
43808;DHT22;29438;50.664;10.098;2023-03-22T02:50:14;4.10;94.70
43808;DHT22;29438;50.664;10.098;2023-03-22T02:52:51;4.00;94.70
43808;DHT22;29438;50.664;10.098;2023-03-22T02:55:20;3.90;94.80
43808;DHT22;29438;50.664;10.098;2023-03-22T02:58:38;3.90;94.80
43808;DHT22;29438;50.664;10.098;2023-03-22T03:00:46;3.90;94.80
43808;DHT22;29438;50.664;10.098;2023-03-22T03:03:15;4.00;94.90
43808;DHT22;29438;50.664;10.098;2023-03-22T03:05:45;4.00;95.00
43808;DHT22;29438;50.664;10.098;2023-03-22T03:08:14;3.90;94.90
43808;DHT22;29438;50.664;10.098;2023-03-22T03:10:40;3.90;95.00
43808;DHT22;29438;50.664;10.098;2023-03-22T03:13:15;4.00;95.00
43808;DHT22;29438;50.664;10.098;2023-03-22T03:15:43;3.90;95.10
43808;DHT22;29438;50.664;10.098;2023-03-22T03:29:13;3.80;95.10
43808;DHT22;29438;50.664;10.098;2023-03-22T03:34:26;4.20;95.30
43808;DHT22;29438;50.664;10.098;2023-03-22T03:36:59;4.30;95.30
43808;DHT22;29438;50.664;10.098;2023-03-22T03:39:29;4.30;95.20
43808;DHT22;29438;50.664;10.098;2023-03-22T03:41:56;4.30;95.30
43808;DHT22;29438;50.664;10.098;2023-03-22T03:44:23;4.40;95.30
43808;DHT22;29438;50.664;10.098;2023-03-22T03:46:50;4.40;95.30
43808;DHT22;29438;50.664;10.098;2023-03-22T03:49:17;4.30;95.30
43808;DHT22;29438;50.664;10.098;2023-03-22T03:51:48;4.20;95.30
43808;DHT22;29438;50.664;10.098;2023-03-22T03:54:14;4.10;95.20
43808;DHT22;29438;50.664;10.098;2023-03-22T03:56:39;4.10;95.30
43808;DHT22;29438;50.664;10.098;2023-03-22T03:59:05;4.20;95.40
43808;DHT22;29438;50.664;10.098;2023-03-22T04:01:32;4.10;95.30
43808;DHT22;29438;50.664;10.098;2023-03-22T04:03:58;4.00;95.30
43808;DHT22;29438;50.664;10.098;2023-03-22T04:06:23;4.00;95.20
43808;DHT22;29438;50.664;10.098;2023-03-22T04:08:49;4.00;95.30
43808;DHT22;29438;50.664;10.098;2023-03-22T04:11:18;4.00;95.30
43808;DHT22;29438;50.664;10.098;2023-03-22T04:13:44;4.00;95.30
43808;DHT22;29438;50.664;10.098;2023-03-22T04:16:09;4.20;95.40
43808;DHT22;29438;50.664;10.098;2023-03-22T04:18:35;4.20;95.40
43808;DHT22;29438;50.664;10.098;2023-03-22T04:21:01;4.30;95.30
43808;DHT22;29438;50.664;10.098;2023-03-22T04:23:27;4.20;95.40
43808;DHT22;29438;50.664;10.098;2023-03-22T04:25:53;4.10;95.40
43808;DHT22;29438;50.664;10.098;2023-03-22T04:28:19;4.00;95.30
43808;DHT22;29438;50.664;10.098;2023-03-22T04:30:46;3.90;95.30
43808;DHT22;29438;50.664;10.098;2023-03-22T04:33:15;4.00;95.30
43808;DHT22;29438;50.664;10.098;2023-03-22T04:35:40;3.90;95.20
43808;DHT22;29438;50.664;10.098;2023-03-22T04:38:06;3.90;95.20
43808;DHT22;29438;50.664;10.098;2023-03-22T04:40:32;3.80;95.20
43808;DHT22;29438;50.664;10.098;2023-03-22T04:43:01;3.80;95.20
43808;DHT22;29438;50.664;10.098;2023-03-22T04:45:28;3.80;95.40
43808;DHT22;29438;50.664;10.098;2023-03-22T04:47:59;3.90;95.50
43808;DHT22;29438;50.664;10.098;2023-03-22T04:50:24;3.90;95.50
43808;DHT22;29438;50.664;10.098;2023-03-22T04:52:52;3.80;95.40
43808;DHT22;29438;50.664;10.098;2023-03-22T04:55:18;3.80;95.30
43808;DHT22;29438;50.664;10.098;2023-03-22T04:57:43;3.70;95.30
43808;DHT22;29438;50.664;10.098;2023-03-22T05:00:09;3.60;95.30
43808;DHT22;29438;50.664;10.098;2023-03-22T05:02:35;3.60;95.30
43808;DHT22;29438;50.664;10.098;2023-03-22T05:05:03;3.50;95.30
43808;DHT22;29438;50.664;10.098;2023-03-22T05:07:29;3.60;95.40
43808;DHT22;29438;50.664;10.098;2023-03-22T05:09:55;3.60;95.50
43808;DHT22;29438;50.664;10.098;2023-03-22T05:12:20;3.70;95.50
43808;DHT22;29438;50.664;10.098;2023-03-22T05:14:46;3.80;95.50
43808;DHT22;29438;50.664;10.098;2023-03-22T05:17:11;3.80;95.40
43808;DHT22;29438;50.664;10.098;2023-03-22T05:19:37;4.00;95.50
43808;DHT22;29438;50.664;10.098;2023-03-22T05:22:02;4.20;95.60
43808;DHT22;29438;50.664;10.098;2023-03-22T05:24:29;4.30;95.60
43808;DHT22;29438;50.664;10.098;2023-03-22T05:26:55;4.20;95.50
43808;DHT22;29438;50.664;10.098;2023-03-22T05:29:20;4.10;95.50
43808;DHT22;29438;50.664;10.098;2023-03-22T05:31:47;4.00;95.50
43808;DHT22;29438;50.664;10.098;2023-03-22T05:34:12;4.00;95.50
43808;DHT22;29438;50.664;10.098;2023-03-22T05:36:38;3.90;95.50
43808;DHT22;29438;50.664;10.098;2023-03-22T05:39:03;3.80;95.50
43808;DHT22;29438;50.664;10.098;2023-03-22T05:41:29;3.90;95.60
43808;DHT22;29438;50.664;10.098;2023-03-22T05:43:59;3.90;95.60
43808;DHT22;29438;50.664;10.098;2023-03-22T05:46:24;4.00;95.70
43808;DHT22;29438;50.664;10.098;2023-03-22T05:48:50;4.20;95.90
43808;DHT22;29438;50.664;10.098;2023-03-22T05:51:16;4.50;96.10
43808;DHT22;29438;50.664;10.098;2023-03-22T05:53:46;4.60;96.20
43808;DHT22;29438;50.664;10.098;2023-03-22T05:56:12;4.70;96.10
43808;DHT22;29438;50.664;10.098;2023-03-22T05:58:38;4.80;96.10
43808;DHT22;29438;50.664;10.098;2023-03-22T06:01:07;5.10;96.40
43808;DHT22;29438;50.664;10.098;2023-03-22T06:03:33;5.40;96.50
43808;DHT22;29438;50.664;10.098;2023-03-22T06:05:59;5.90;96.60
43808;DHT22;29438;50.664;10.098;2023-03-22T06:08:25;6.10;96.40
43808;DHT22;29438;50.664;10.098;2023-03-22T06:10:51;6.90;96.70
43808;DHT22;29438;50.664;10.098;2023-03-22T06:13:18;8.00;97.00
43808;DHT22;29438;50.664;10.098;2023-03-22T06:15:44;7.90;95.10
43808;DHT22;29438;50.664;10.098;2023-03-22T06:18:10;7.30;92.50
43808;DHT22;29438;50.664;10.098;2023-03-22T06:20:35;6.80;91.00
43808;DHT22;29438;50.664;10.098;2023-03-22T06:23:01;6.30;90.70
43808;DHT22;29438;50.664;10.098;2023-03-22T06:25:27;6.20;90.90
43808;DHT22;29438;50.664;10.098;2023-03-22T06:27:52;6.00;91.10
43808;DHT22;29438;50.664;10.098;2023-03-22T06:30:18;5.90;91.10
43808;DHT22;29438;50.664;10.098;2023-03-22T06:32:44;5.90;91.10
43808;DHT22;29438;50.664;10.098;2023-03-22T06:35:10;6.20;91.30
43808;DHT22;29438;50.664;10.098;2023-03-22T06:37:35;6.30;91.30
43808;DHT22;29438;50.664;10.098;2023-03-22T06:40:01;6.60;90.60
43808;DHT22;29438;50.664;10.098;2023-03-22T06:42:27;6.50;90.00
43808;DHT22;29438;50.664;10.098;2023-03-22T06:44:55;6.40;89.80
43808;DHT22;29438;50.664;10.098;2023-03-22T06:47:21;6.60;90.20
43808;DHT22;29438;50.664;10.098;2023-03-22T06:49:47;6.50;90.00
43808;DHT22;29438;50.664;10.098;2023-03-22T06:52:12;6.50;90.10
43808;DHT22;29438;50.664;10.098;2023-03-22T06:54:38;6.70;90.30
43808;DHT22;29438;50.664;10.098;2023-03-22T06:57:03;7.20;90.00
43808;DHT22;29438;50.664;10.098;2023-03-22T06:59:29;7.10;89.20
43808;DHT22;29438;50.664;10.098;2023-03-22T07:01:54;7.20;88.90
43808;DHT22;29438;50.664;10.098;2023-03-22T07:04:20;7.30;88.70
43808;DHT22;29438;50.664;10.098;2023-03-22T07:06:45;7.60;88.50
43808;DHT22;29438;50.664;10.098;2023-03-22T07:09:11;8.10;88.20
43808;DHT22;29438;50.664;10.098;2023-03-22T07:11:36;8.70;84.60
43808;DHT22;29438;50.664;10.098;2023-03-22T07:14:02;9.20;84.50
43808;DHT22;29438;50.664;10.098;2023-03-22T07:16:27;10.10;81.30
43808;DHT22;29438;50.664;10.098;2023-03-22T07:18:53;11.00;79.30
43808;DHT22;29438;50.664;10.098;2023-03-22T07:21:20;12.70;73.60
43808;DHT22;29438;50.664;10.098;2023-03-22T07:23:45;14.30;68.90
43808;DHT22;29438;50.664;10.098;2023-03-22T07:26:11;15.70;62.10
43808;DHT22;29438;50.664;10.098;2023-03-22T07:28:38;15.40;63.40
43808;DHT22;29438;50.664;10.098;2023-03-22T07:31:07;15.50;63.60
43808;DHT22;29438;50.664;10.098;2023-03-22T07:33:37;16.70;59.30
43808;DHT22;29438;50.664;10.098;2023-03-22T07:36:04;16.90;58.00
43808;DHT22;29438;50.664;10.098;2023-03-22T07:38:30;17.80;56.30
43808;DHT22;29438;50.664;10.098;2023-03-22T07:40:56;18.80;54.70
43808;DHT22;29438;50.664;10.098;2023-03-22T07:43:22;19.50;53.40
43808;DHT22;29438;50.664;10.098;2023-03-22T07:45:49;20.40;49.80
43808;DHT22;29438;50.664;10.098;2023-03-22T07:48:15;21.50;46.90
43808;DHT22;29438;50.664;10.098;2023-03-22T07:50:40;21.50;45.40
43808;DHT22;29438;50.664;10.098;2023-03-22T07:53:07;21.80;45.30
43808;DHT22;29438;50.664;10.098;2023-03-22T07:55:32;22.40;44.40
43808;DHT22;29438;50.664;10.098;2023-03-22T07:57:58;21.20;45.00
43808;DHT22;29438;50.664;10.098;2023-03-22T08:00:24;18.70;49.00
43808;DHT22;29438;50.664;10.098;2023-03-22T08:02:49;17.70;53.10
43808;DHT22;29438;50.664;10.098;2023-03-22T08:05:15;17.30;53.60
43808;DHT22;29438;50.664;10.098;2023-03-22T08:07:41;16.60;56.80
43808;DHT22;29438;50.664;10.098;2023-03-22T08:10:07;16.50;57.70
43808;DHT22;29438;50.664;10.098;2023-03-22T08:12:32;18.20;56.50
43808;DHT22;29438;50.664;10.098;2023-03-22T08:14:58;20.70;48.10
43808;DHT22;29438;50.664;10.098;2023-03-22T08:17:23;21.40;45.30
43808;DHT22;29438;50.664;10.098;2023-03-22T08:19:50;20.50;48.00
43808;DHT22;29438;50.664;10.098;2023-03-22T08:22:18;21.00;47.00
43808;DHT22;29438;50.664;10.098;2023-03-22T08:24:47;21.30;44.70
43808;DHT22;29438;50.664;10.098;2023-03-22T08:27:13;20.20;47.50
43808;DHT22;29438;50.664;10.098;2023-03-22T08:29:39;20.40;47.20
43808;DHT22;29438;50.664;10.098;2023-03-22T08:32:04;20.80;45.80
43808;DHT22;29438;50.664;10.098;2023-03-22T08:34:30;19.90;47.20
43808;DHT22;29438;50.664;10.098;2023-03-22T08:36:57;20.00;47.50
43808;DHT22;29438;50.664;10.098;2023-03-22T08:39:23;19.70;47.60
43808;DHT22;29438;50.664;10.098;2023-03-22T08:41:48;19.20;50.50
43808;DHT22;29438;50.664;10.098;2023-03-22T08:44:14;19.10;50.50
43808;DHT22;29438;50.664;10.098;2023-03-22T08:46:39;19.10;52.00
43808;DHT22;29438;50.664;10.098;2023-03-22T08:49:05;19.20;51.50
43808;DHT22;29438;50.664;10.098;2023-03-22T08:51:30;18.90;50.70
43808;DHT22;29438;50.664;10.098;2023-03-22T08:53:56;18.80;51.10
43808;DHT22;29438;50.664;10.098;2023-03-22T08:56:24;17.50;54.00
43808;DHT22;29438;50.664;10.098;2023-03-22T08:58:52;17.60;55.20
43808;DHT22;29438;50.664;10.098;2023-03-22T09:01:18;17.70;55.00
43808;DHT22;29438;50.664;10.098;2023-03-22T09:03:45;17.50;56.20
43808;DHT22;29438;50.664;10.098;2023-03-22T09:06:12;18.20;53.00
43808;DHT22;29438;50.664;10.098;2023-03-22T09:08:37;17.40;54.00
43808;DHT22;29438;50.664;10.098;2023-03-22T09:11:03;16.40;57.10
43808;DHT22;29438;50.664;10.098;2023-03-22T09:13:29;15.80;59.20
43808;DHT22;29438;50.664;10.098;2023-03-22T09:15:56;14.90;62.30
43808;DHT22;29438;50.664;10.098;2023-03-22T09:18:22;14.10;64.80
43808;DHT22;29438;50.664;10.098;2023-03-22T09:20:49;13.90;66.30
43808;DHT22;29438;50.664;10.098;2023-03-22T09:23:14;14.70;65.10
43808;DHT22;29438;50.664;10.098;2023-03-22T09:25:43;15.10;62.20
43808;DHT22;29438;50.664;10.098;2023-03-22T09:28:09;15.60;61.30
43808;DHT22;29438;50.664;10.098;2023-03-22T09:30:35;16.50;58.00
43808;DHT22;29438;50.664;10.098;2023-03-22T09:33:01;16.60;58.30
43808;DHT22;29438;50.664;10.098;2023-03-22T09:35:27;16.20;59.60
43808;DHT22;29438;50.664;10.098;2023-03-22T09:37:53;15.70;60.20
43808;DHT22;29438;50.664;10.098;2023-03-22T09:40:33;16.00;60.30
43808;DHT22;29438;50.664;10.098;2023-03-22T09:43:05;16.00;60.00
43808;DHT22;29438;50.664;10.098;2023-03-22T09:45:41;16.50;58.00
43808;DHT22;29438;50.664;10.098;2023-03-22T09:48:16;16.20;57.60
43808;DHT22;29438;50.664;10.098;2023-03-22T09:50:48;15.30;59.70
43808;DHT22;29438;50.664;10.098;2023-03-22T09:53:15;15.10;60.50
43808;DHT22;29438;50.664;10.098;2023-03-22T09:56:09;14.80;61.00
43808;DHT22;29438;50.664;10.098;2023-03-22T10:01:45;15.70;59.20
43808;DHT22;29438;50.664;10.098;2023-03-22T10:07:25;16.90;54.90
43808;DHT22;29438;50.664;10.098;2023-03-22T10:10:14;18.00;50.80
43808;DHT22;29438;50.664;10.098;2023-03-22T10:12:57;18.30;51.00
43808;DHT22;29438;50.664;10.098;2023-03-22T10:15:36;17.60;52.40
43808;DHT22;29438;50.664;10.098;2023-03-22T10:18:06;16.40;51.30
43808;DHT22;29438;50.664;10.098;2023-03-22T10:20:43;15.80;55.20
43808;DHT22;29438;50.664;10.098;2023-03-22T10:23:37;15.50;55.80
43808;DHT22;29438;50.664;10.098;2023-03-22T10:26:04;15.70;55.60
43808;DHT22;29438;50.664;10.098;2023-03-22T10:28:36;15.60;55.80
43808;DHT22;29438;50.664;10.098;2023-03-22T10:31:03;15.20;55.50
43808;DHT22;29438;50.664;10.098;2023-03-22T10:33:38;15.10;55.30
43808;DHT22;29438;50.664;10.098;2023-03-22T10:36:08;15.30;56.50
43808;DHT22;29438;50.664;10.098;2023-03-22T10:38:54;16.40;52.90
43808;DHT22;29438;50.664;10.098;2023-03-22T10:41:23;16.90;51.40
43808;DHT22;29438;50.664;10.098;2023-03-22T10:43:52;17.10;52.80
43808;DHT22;29438;50.664;10.098;2023-03-22T10:46:21;17.80;49.80
43808;DHT22;29438;50.664;10.098;2023-03-22T10:48:50;16.90;52.00
43808;DHT22;29438;50.664;10.098;2023-03-22T10:51:36;16.50;52.30
43808;DHT22;29438;50.664;10.098;2023-03-22T10:54:03;16.70;52.30
43808;DHT22;29438;50.664;10.098;2023-03-22T10:56:30;16.50;53.00
43808;DHT22;29438;50.664;10.098;2023-03-22T10:58:55;16.50;53.00
43808;DHT22;29438;50.664;10.098;2023-03-22T11:03:59;16.10;54.20
43808;DHT22;29438;50.664;10.098;2023-03-22T11:06:31;16.50;54.00
43808;DHT22;29438;50.664;10.098;2023-03-22T11:09:07;16.80;52.80
43808;DHT22;29438;50.664;10.098;2023-03-22T11:11:44;17.20;52.40
43808;DHT22;29438;50.664;10.098;2023-03-22T11:14:32;16.90;51.90
43808;DHT22;29438;50.664;10.098;2023-03-22T11:19:39;15.00;56.70
43808;DHT22;29438;50.664;10.098;2023-03-22T11:22:15;14.70;56.10
43808;DHT22;29438;50.664;10.098;2023-03-22T11:24:41;15.00;56.20
43808;DHT22;29438;50.664;10.098;2023-03-22T11:27:29;15.20;57.00
43808;DHT22;29438;50.664;10.098;2023-03-22T11:32:37;16.40;54.20
43808;DHT22;29438;50.664;10.098;2023-03-22T11:37:45;17.20;51.80
43808;DHT22;29438;50.664;10.098;2023-03-22T11:40:23;17.20;51.80
43808;DHT22;29438;50.664;10.098;2023-03-22T11:42:56;17.10;52.40
43808;DHT22;29438;50.664;10.098;2023-03-22T11:45:31;17.40;51.70
43808;DHT22;29438;50.664;10.098;2023-03-22T11:48:11;16.80;51.70
43808;DHT22;29438;50.664;10.098;2023-03-22T11:50:38;16.70;52.70
43808;DHT22;29438;50.664;10.098;2023-03-22T11:53:09;16.80;53.00
43808;DHT22;29438;50.664;10.098;2023-03-22T11:55:36;16.60;52.20
43808;DHT22;29438;50.664;10.098;2023-03-22T11:58:03;16.20;53.20
43808;DHT22;29438;50.664;10.098;2023-03-22T12:00:30;16.00;53.50
43808;DHT22;29438;50.664;10.098;2023-03-22T12:03:03;15.80;55.70
43808;DHT22;29438;50.664;10.098;2023-03-22T12:05:35;16.00;55.80
43808;DHT22;29438;50.664;10.098;2023-03-22T12:08:39;16.00;54.30
43808;DHT22;29438;50.664;10.098;2023-03-22T12:11:12;16.00;55.00
43808;DHT22;29438;50.664;10.098;2023-03-22T12:16:14;15.80;54.90
43808;DHT22;29438;50.664;10.098;2023-03-22T12:18:46;15.50;55.30
43808;DHT22;29438;50.664;10.098;2023-03-22T12:21:13;15.50;56.60
43808;DHT22;29438;50.664;10.098;2023-03-22T12:23:38;15.80;54.40
43808;DHT22;29438;50.664;10.098;2023-03-22T12:26:10;16.10;54.50
43808;DHT22;29438;50.664;10.098;2023-03-22T12:31:24;15.80;56.10
43808;DHT22;29438;50.664;10.098;2023-03-22T12:33:53;16.20;54.90
43808;DHT22;29438;50.664;10.098;2023-03-22T12:36:40;16.90;54.30
43808;DHT22;29438;50.664;10.098;2023-03-22T12:39:12;16.80;52.60
43808;DHT22;29438;50.664;10.098;2023-03-22T12:41:46;16.70;53.40
43808;DHT22;29438;50.664;10.098;2023-03-22T12:50:04;16.20;54.90
43808;DHT22;29438;50.664;10.098;2023-03-22T12:52:47;16.00;55.80
43808;DHT22;29438;50.664;10.098;2023-03-22T12:55:31;15.90;56.10
43808;DHT22;29438;50.664;10.098;2023-03-22T12:57:58;15.90;55.80
43808;DHT22;29438;50.664;10.098;2023-03-22T13:00:33;15.90;55.50
43808;DHT22;29438;50.664;10.098;2023-03-22T13:05:46;16.20;56.30
43808;DHT22;29438;50.664;10.098;2023-03-22T13:08:13;15.70;56.20
43808;DHT22;29438;50.664;10.098;2023-03-22T13:15:57;16.00;59.50
43808;DHT22;29438;50.664;10.098;2023-03-22T13:21:18;16.40;56.00
43808;DHT22;29438;50.664;10.098;2023-03-22T13:23:54;16.40;56.00
43808;DHT22;29438;50.664;10.098;2023-03-22T13:26:26;16.20;54.70
43808;DHT22;29438;50.664;10.098;2023-03-22T13:28:57;16.20;56.80
43808;DHT22;29438;50.664;10.098;2023-03-22T13:34:38;16.10;55.90
43808;DHT22;29438;50.664;10.098;2023-03-22T13:37:07;15.70;55.80
43808;DHT22;29438;50.664;10.098;2023-03-22T13:39:34;15.60;56.50
43808;DHT22;29438;50.664;10.098;2023-03-22T13:42:15;15.30;55.50
43808;DHT22;29438;50.664;10.098;2023-03-22T13:44:42;14.80;56.20
43808;DHT22;29438;50.664;10.098;2023-03-22T13:50:05;14.90;55.80
43808;DHT22;29438;50.664;10.098;2023-03-22T13:52:41;14.90;56.60
43808;DHT22;29438;50.664;10.098;2023-03-22T13:58:34;15.30;57.40
43808;DHT22;29438;50.664;10.098;2023-03-22T14:01:26;15.20;56.00
43808;DHT22;29438;50.664;10.098;2023-03-22T14:03:49;15.00;56.40
43808;DHT22;29438;50.664;10.098;2023-03-22T14:06:23;14.80;57.20
43808;DHT22;29438;50.664;10.098;2023-03-22T14:08:54;15.00;57.00
43808;DHT22;29438;50.664;10.098;2023-03-22T14:11:28;15.20;56.90
43808;DHT22;29438;50.664;10.098;2023-03-22T14:14:05;15.10;56.50
43808;DHT22;29438;50.664;10.098;2023-03-22T14:16:42;15.10;56.60
43808;DHT22;29438;50.664;10.098;2023-03-22T14:19:18;15.10;55.30
43808;DHT22;29438;50.664;10.098;2023-03-22T14:21:49;15.00;56.30
43808;DHT22;29438;50.664;10.098;2023-03-22T14:24:17;15.00;56.80
43808;DHT22;29438;50.664;10.098;2023-03-22T14:26:53;15.10;57.00
43808;DHT22;29438;50.664;10.098;2023-03-22T14:29:21;15.10;56.30
43808;DHT22;29438;50.664;10.098;2023-03-22T14:31:56;15.20;57.60
43808;DHT22;29438;50.664;10.098;2023-03-22T14:34:22;15.30;56.90
43808;DHT22;29438;50.664;10.098;2023-03-22T14:36:54;15.20;55.90
43808;DHT22;29438;50.664;10.098;2023-03-22T14:39:31;15.30;56.50
43808;DHT22;29438;50.664;10.098;2023-03-22T14:42:07;15.10;55.20
43808;DHT22;29438;50.664;10.098;2023-03-22T14:44:46;14.80;55.60
43808;DHT22;29438;50.664;10.098;2023-03-22T14:47:15;14.80;55.00
43808;DHT22;29438;50.664;10.098;2023-03-22T14:49:44;14.80;55.60
43808;DHT22;29438;50.664;10.098;2023-03-22T14:52:21;14.90;55.90
43808;DHT22;29438;50.664;10.098;2023-03-22T14:54:52;15.00;56.10
43808;DHT22;29438;50.664;10.098;2023-03-22T14:57:19;15.10;55.90
43808;DHT22;29438;50.664;10.098;2023-03-22T14:59:48;15.10;56.20
43808;DHT22;29438;50.664;10.098;2023-03-22T15:03:21;15.10;56.20
43808;DHT22;29438;50.664;10.098;2023-03-22T15:05:37;14.80;56.30
43808;DHT22;29438;50.664;10.098;2023-03-22T15:08:08;14.80;57.10
43808;DHT22;29438;50.664;10.098;2023-03-22T15:10:35;14.80;56.20
43808;DHT22;29438;50.664;10.098;2023-03-22T15:13:02;14.70;56.70
43808;DHT22;29438;50.664;10.098;2023-03-22T15:15:31;14.80;56.80
43808;DHT22;29438;50.664;10.098;2023-03-22T15:17:58;14.80;56.40
43808;DHT22;29438;50.664;10.098;2023-03-22T15:20:32;14.90;56.80
43808;DHT22;29438;50.664;10.098;2023-03-22T15:23:15;14.80;57.20
43808;DHT22;29438;50.664;10.098;2023-03-22T15:25:45;14.70;57.70
43808;DHT22;29438;50.664;10.098;2023-03-22T15:28:13;14.60;58.10
43808;DHT22;29438;50.664;10.098;2023-03-22T15:30:46;14.40;57.60
43808;DHT22;29438;50.664;10.098;2023-03-22T15:33:24;14.30;58.80
43808;DHT22;29438;50.664;10.098;2023-03-22T15:35:53;14.30;58.30
43808;DHT22;29438;50.664;10.098;2023-03-22T15:38:39;14.30;58.90
43808;DHT22;29438;50.664;10.098;2023-03-22T15:41:27;14.20;58.80
43808;DHT22;29438;50.664;10.098;2023-03-22T15:44:20;14.20;59.30
43808;DHT22;29438;50.664;10.098;2023-03-22T15:46:56;14.20;59.30
43808;DHT22;29438;50.664;10.098;2023-03-22T15:49:29;14.10;59.00
43808;DHT22;29438;50.664;10.098;2023-03-22T15:54:42;14.00;59.70
43808;DHT22;29438;50.664;10.098;2023-03-22T15:57:21;14.00;59.10
43808;DHT22;29438;50.664;10.098;2023-03-22T16:00:01;14.00;60.00
43808;DHT22;29438;50.664;10.098;2023-03-22T16:02:34;14.00;59.60
43808;DHT22;29438;50.664;10.098;2023-03-22T16:05:01;13.90;60.60
43808;DHT22;29438;50.664;10.098;2023-03-22T16:07:30;13.80;60.10
43808;DHT22;29438;50.664;10.098;2023-03-22T16:09:56;13.80;60.20
43808;DHT22;29438;50.664;10.098;2023-03-22T16:12:23;13.80;60.20
43808;DHT22;29438;50.664;10.098;2023-03-22T16:14:49;13.70;61.20
43808;DHT22;29438;50.664;10.098;2023-03-22T16:17:18;13.70;61.30
43808;DHT22;29438;50.664;10.098;2023-03-22T16:19:44;13.70;62.10
43808;DHT22;29438;50.664;10.098;2023-03-22T16:22:11;13.60;60.90
43808;DHT22;29438;50.664;10.098;2023-03-22T16:24:38;13.60;61.10
43808;DHT22;29438;50.664;10.098;2023-03-22T16:27:11;13.50;61.00
43808;DHT22;29438;50.664;10.098;2023-03-22T16:29:37;13.50;61.00
43808;DHT22;29438;50.664;10.098;2023-03-22T16:32:03;13.50;61.90
43808;DHT22;29438;50.664;10.098;2023-03-22T16:34:29;13.50;62.10
43808;DHT22;29438;50.664;10.098;2023-03-22T16:36:55;13.50;60.00
43808;DHT22;29438;50.664;10.098;2023-03-22T16:39:22;13.40;60.50
43808;DHT22;29438;50.664;10.098;2023-03-22T16:41:48;13.40;61.40
43808;DHT22;29438;50.664;10.098;2023-03-22T16:44:16;13.30;59.50
43808;DHT22;29438;50.664;10.098;2023-03-22T16:46:43;13.30;60.50
43808;DHT22;29438;50.664;10.098;2023-03-22T16:49:09;13.20;60.50
43808;DHT22;29438;50.664;10.098;2023-03-22T16:51:36;13.20;60.30
43808;DHT22;29438;50.664;10.098;2023-03-22T16:54:01;13.20;60.80
43808;DHT22;29438;50.664;10.098;2023-03-22T16:56:27;13.10;61.00
43808;DHT22;29438;50.664;10.098;2023-03-22T16:58:55;13.10;60.30
43808;DHT22;29438;50.664;10.098;2023-03-22T17:01:21;13.10;61.30
43808;DHT22;29438;50.664;10.098;2023-03-22T17:03:48;13.10;60.80